Terminal Aerodrome Forecast
Issued by NWS

Home | Current Version | Previous Version | Text Only | Print | Product List | Glossary On
Versions: 1 2 3 4 5 6 7 8 9 10 11 12 13 14 15
000
FTUS44 KTSA 292107 AAB
TAFXNA
TAF AMD
KXNA 292107Z 2921/3018 09010KT P6SM VCTS SCT050CB
      TEMPO 2921/2922 2SM -TSRA BKN040CB
     FM300100 VRB03KT P6SM BKN250
     FM301500 VRB03KT P6SM SCT050=

USA.gov is the U.S. government's official web portal to all federal, state and local government web resources and services.